KJLN

Joplin Regional Airport

Joplin, Missouri, USA
METAR KJLN 162153Z 00000KT 10SM CLR 14/M01 A3022 RMK AO2 SLP234 T01441006
Observed Flight Rules
Dec-16 @ 21:53 UTC (57 minutes ago) Visual Flight Rules
Visibility Clouds
10 miles
  • Clear skies
Temperatures Readings
Current 14°C / 57°F
Dewpoint -1°C / 30°F
Humidity 36%
Altimeter 30.22" Hg
Pressure 1023.4 hPa
Elevation 299
METAR KJLN 162153Z 00000KT 10SM CLR 14/M01 A3022 RMK AO2 SLP234 T01441006
Observed Flight Rules
Dec-16 @ 21:53 UTC
(57 minutes ago)
VFR
Clouds
  • Clear skies
Temperature Dewpoint
14°C / 57°F -1°C / 30°F
Humidity Altimeter Pressure
36% 30.22" Hg 1023.4 hPa